Terminal Aerodrome Forecast
Issued by NWS

Home | Current Version | Previous Version | Text Only | Print | Product List | Glossary On
Versions: 1 2 3 4 5 6 7 8 9 10 11 12 13 14 15 16
000
FTUS44 KLZK 182300 RRA
TAFADF
TAF
KADF 182341Z 1900/1924 VRB03KT P6SM SCT100 BKN250
     FM190800 VRB03KT 4SM BR SCT015 BKN060
      TEMPO 1909/1913 1SM BR BKN015
     FM191400 22004KT P6SM BKN020
     FM191700 20007KT P6SM SCT030 BKN250 PROB30 1920/1924 3SM TSRA
      BR BKN020CB=

USA.gov is the U.S. government's official web portal to all federal, state and local government web resources and services.